Aérodrome :
LOGIN :

S'inscrire | Disclaimer

   EN    FR    IT 

 










Légende :    VFR   VFR Marginal   IFR   IFR Intensif   IFR Très Intensif
Visi : 
Plafond : 
>= 8 km
>= 3000ft
5 à 8 km
1000 à 3000 ft
1500m à 5 km
500 à 1000 ft
800 à 1500m
200 à 500 ft
< 800m
< 200 ft
Symboles :   Orages  Brouillard  Fortes neiges  Fortes précipitations  Vent > 20 kt
SIGMETs :   Divers  Orages  Givrage  Turbulence  Onde Orograph.  Cendres Volcan.







- Altitude de l'aérodrome : 30 ft
- Code IATA : CFN


EIDL - Donegal

DERNIER METAR :
  • 171700Z 17031G42KT 9999 FEW028 12/08 Q0994

METARs EXPIRÉS :
  • 171630Z 17030G41KT 9999 BKN033 12/08 Q0995
  • 171600Z 17028KT 9999 FEW023 11/08 Q0995
  • 171530Z 17027KT 9999 FEW022 11/07 Q0996
  • 171500Z 17028KT 9999 FEW025 11/07 Q0997
  • 171430Z 17028KT CAVOK 11/07 Q0997

TAF TAF EIDL
Valide du 17 à 15h jusqu'au 17 à 21h UTC


171400Z 1715/1721 16025G35KT 9999 SCT040
TEMPO 1715/1721 5000 -RA BKN010
TEMPO 1718/1721 16028G45KT
Pas de NOTAMs connus pour ce terrain.
3 SIGMETs publiés pour la FIR Shannon (EISN) :
 
Onde orographique forte
EISN SIGMET 03 VALID 171655/172100 EINN
EISN SHANNON FIR SEV MTW FCST AT 1700Z N OF N5130 E OF W01030 FL080/150 STNR INTSF=
Turbulence forte
EISN SIGMET 02 VALID 171614/172000 EINN
EISN SHANNON UIR SEV TURB FCST W OF W00900 FL300/390 MOV NE 50KT NC=
Turbulence forte
EISN SIGMET 01 VALID 171515/171915 EINN
EISN SHANNON FIR SEV TURB FCST WI N5419 W01210 - N5434 W01000 - N5435 W00950 - N5200 W00945 - N5100 W00820 - N5100 W01325 - N5419 W01210 SFC/FL060 MOV E 5KT NC=



MET'MAP, la Météo Aéronautique d'un coup d'oeil ! - Copyright ORBIFLY Décembre 2007 - Disclaimer

ORBIFLY MET'MAP TEAM :

Programmation & Développement : Alexandra Zaïnal
Conception & Développement : Baudouin d'Aumeries
Co-Programmation & Développement : Marc-Olivier Méhu
Soutien technique & logistique : Manuel Goepfert

Contact : metmap@orbifly.com




SOURCES & CREDITS :

   NOAA